Time;durP1;ratioP1;P1;durP2;ratioP2;P2;SDS_P1;SDS_P2;PMS_P1;PMS_P2;Temp;Humidity;BMP_temperature;BMP_pressure;BME280_temperature;BME280_humidity;BME280_pressure;Samples;Min_cycle;Max_cycle;Signal;HPM_P1;HPM_P2
2022/12/31 00:00:37;;;;;;;4.38;2.10;;;13.50;89.10;;;;;;5041061;28;20037;-71
2022/12/31 00:03:04;;;;;;;5.13;2.28;;;13.50;89.10;;;;;;5045960;28;20535;-70
2022/12/31 00:05:30;;;;;;;5.78;2.17;;;13.50;89.10;;;;;;5045555;28;20029;-71
2022/12/31 00:07:56;;;;;;;4.15;2.03;;;13.50;89.20;;;;;;5053808;28;20035;-70
2022/12/31 00:10:22;;;;;;;3.22;1.70;;;13.50;89.20;;;;;;5052796;28;20067;-70
2022/12/31 00:12:48;;;;;;;4.07;1.80;;;13.50;89.20;;;;;;5067376;28;20065;-70
2022/12/31 00:15:14;;;;;;;3.72;1.70;;;13.50;89.30;;;;;;5049174;28;20032;-70
2022/12/31 00:17:39;;;;;;;4.43;1.90;;;13.50;89.30;;;;;;5047721;28;20102;-70
2022/12/31 00:20:06;;;;;;;3.33;1.52;;;13.50;89.30;;;;;;5052486;28;20033;-70
2022/12/31 00:22:32;;;;;;;2.55;1.20;;;13.50;89.30;;;;;;5039104;28;20047;-70
2022/12/31 00:24:57;;;;;;;2.75;1.30;;;13.50;89.40;;;;;;5027998;28;20115;-70
2022/12/31 00:27:23;;;;;;;3.03;1.40;;;13.50;89.40;;;;;;5045755;28;20466;-70
2022/12/31 00:29:49;;;;;;;2.70;1.30;;;13.50;89.50;;;;;;5034286;28;20053;-71
2022/12/31 00:32:14;;;;;;;2.47;0.98;;;13.50;89.50;;;;;;5049871;28;20029;-71
2022/12/31 00:34:40;;;;;;;2.67;1.02;;;13.50;89.60;;;;;;5027732;28;20034;-70
2022/12/31 00:37:06;;;;;;;2.10;0.85;;;13.50;89.60;;;;;;5048360;28;20353;-71
2022/12/31 00:39:33;;;;;;;2.15;0.90;;;13.50;89.60;;;;;;5054046;28;20354;-71
2022/12/31 00:41:59;;;;;;;2.10;1.00;;;13.50;89.70;;;;;;5049604;28;20021;-70
2022/12/31 00:44:25;;;;;;;1.52;1.00;;;13.50;89.70;;;;;;5041236;28;20056;-70
2022/12/31 00:46:50;;;;;;;1.02;0.60;;;13.50;89.70;;;;;;5029006;28;20030;-70
2022/12/31 00:49:16;;;;;;;2.45;0.90;;;13.50;89.80;;;;;;5051681;28;20025;-70
2022/12/31 00:51:42;;;;;;;3.75;1.10;;;13.40;89.70;;;;;;5044395;28;20088;-71
2022/12/31 00:54:08;;;;;;;3.47;1.10;;;13.40;89.80;;;;;;5051070;28;20041;-70
2022/12/31 00:56:34;;;;;;;1.05;0.70;;;13.40;89.90;;;;;;5050715;28;20087;-70
2022/12/31 00:59:00;;;;;;;1.50;0.80;;;13.40;89.90;;;;;;5045976;28;20400;-70
2022/12/31 01:01:35;;;;;;;1.50;0.98;;;13.40;90.00;;;;;;5051330;28;20028;-70
2022/12/31 01:04:04;;;;;;;2.17;0.93;;;13.40;90.00;;;;;;5060874;28;20167;-70
2022/12/31 01:06:30;;;;;;;3.08;1.23;;;13.40;90.00;;;;;;5022766;28;20353;-70
2022/12/31 01:08:56;;;;;;;1.90;1.20;;;13.40;90.00;;;;;;5034077;28;20040;-70
2022/12/31 01:11:22;;;;;;;2.90;1.33;;;13.40;90.00;;;;;;5037416;28;20037;-70
2022/12/31 01:13:52;;;;;;;3.33;1.60;;;13.40;90.00;;;;;;5052753;28;20361;-70
2022/12/31 01:16:21;;;;;;;2.80;1.35;;;13.40;90.00;;;;;;5051128;28;20120;-70
2022/12/31 01:18:48;;;;;;;3.58;1.70;;;13.40;90.30;;;;;;5040364;28;20033;-70
2022/12/31 01:21:14;;;;;;;3.00;1.50;;;13.30;90.00;;;;;;5047147;28;20473;-70
2022/12/31 01:23:40;;;;;;;3.70;1.70;;;13.30;90.00;;;;;;5039605;28;20350;-70
2022/12/31 01:26:07;;;;;;;5.43;1.80;;;13.30;90.00;;;;;;5042677;28;20091;-71
2022/12/31 01:28:34;;;;;;;5.38;1.58;;;13.30;90.00;;;;;;5055963;28;20194;-70
2022/12/31 01:31:07;;;;;;;4.10;1.80;;;13.30;90.00;;;;;;5057121;28;20047;-70
2022/12/31 01:33:33;;;;;;;3.22;1.70;;;13.30;90.00;;;;;;5037523;28;20039;-70
2022/12/31 01:36:09;;;;;;;4.22;1.80;;;13.30;90.00;;;;;;5056177;28;20369;-70
2022/12/31 01:38:35;;;;;;;4.25;1.88;;;13.30;90.00;;;;;;5051793;28;20029;-70
2022/12/31 01:41:01;;;;;;;3.17;1.70;;;13.30;90.00;;;;;;5039750;28;20030;-70
2022/12/31 01:43:53;;;;;;;6.53;2.10;;;13.30;90.00;;;;;;5064116;28;20110;-71
2022/12/31 01:46:39;;;;;;;4.20;1.92;;;13.30;90.00;;;;;;5060694;28;20029;-71
2022/12/31 01:49:10;;;;;;;3.97;1.60;;;13.20;90.00;;;;;;5044352;28;20037;-71
2022/12/31 01:51:38;;;;;;;6.93;2.05;;;13.20;90.00;;;;;;5042412;28;20036;-70
2022/12/31 01:54:07;;;;;;;4.28;1.90;;;13.20;90.00;;;;;;5043278;28;20029;-70
2022/12/31 01:56:34;;;;;;;5.32;2.00;;;13.20;90.10;;;;;;5041792;28;20037;-70
2022/12/31 01:59:03;;;;;;;4.30;1.92;;;13.20;90.10;;;;;;5037911;28;20022;-70
2022/12/31 02:01:31;;;;;;;3.78;1.70;;;13.20;90.10;;;;;;5044724;28;20032;-70
2022/12/31 02:04:00;;;;;;;3.88;1.70;;;13.20;90.20;;;;;;5044107;28;20033;-70
2022/12/31 02:06:38;;;;;;;5.80;2.05;;;13.20;90.10;;;;;;5039534;28;20746;-70
2022/12/31 02:09:05;;;;;;;5.07;1.98;;;13.20;90.40;;;;;;5044195;28;20041;-70
2022/12/31 02:11:35;;;;;;;4.85;1.90;;;13.10;90.10;;;;;;5074499;28;20041;-70
2022/12/31 02:14:12;;;;;;;3.60;1.80;;;13.10;90.10;;;;;;5041816;28;20323;-70
2022/12/31 02:17:25;;;;;;;5.80;2.50;;;13.20;90.10;;;;;;5052028;28;20040;-70
2022/12/31 02:20:25;;;;;;;4.28;1.85;;;13.10;90.10;;;;;;5015138;28;20164;-69
2022/12/31 02:22:56;;;;;;;5.50;1.98;;;13.10;90.10;;;;;;5016333;28;20065;-70
2022/12/31 02:26:10;;;;;;;4.55;1.88;;;13.10;90.10;;;;;;5025922;28;20038;-70
2022/12/31 02:29:07;;;;;;;5.72;2.10;;;13.10;90.10;;;;;;5007946;28;20057;-70
2022/12/31 02:31:40;;;;;;;4.80;1.70;;;13.10;90.10;;;;;;5002521;28;20049;-70
2022/12/31 02:34:16;;;;;;;4.32;2.13;;;13.10;90.10;;;;;;5025278;28;20057;-70
2022/12/31 02:36:46;;;;;;;3.10;1.70;;;13.20;90.10;;;;;;5005297;28;20086;-71
2022/12/31 02:39:13;;;;;;;4.30;1.50;;;13.10;90.10;;;;;;5007474;28;20036;-70
2022/12/31 02:41:52;;;;;;;4.07;1.55;;;13.10;90.10;;;;;;5003233;28;20033;-71
2022/12/31 02:44:24;;;;;;;4.05;1.50;;;13.10;90.10;;;;;;4993340;28;20099;-71
2022/12/31 02:47:08;;;;;;;3.00;1.48;;;13.10;90.10;;;;;;5003475;28;20315;-71
2022/12/31 02:50:00;;;;;;;5.40;1.75;;;13.10;90.10;;;;;;5009788;28;20112;-71
2022/12/31 02:53:07;;;;;;;5.38;1.52;;;13.10;90.10;;;;;;5039807;28;20042;-71
2022/12/31 02:55:44;;;;;;;2.95;1.30;;;13.10;90.10;;;;;;5040730;28;20029;-71
2022/12/31 02:58:13;;;;;;;2.83;1.30;;;13.10;90.10;;;;;;5052524;28;20509;-71
2022/12/31 03:03:36;;;;;;;4.55;1.50;;;13.10;90.10;;;;;;5053291;28;20086;-71
2022/12/31 03:06:04;;;;;;;1.63;1.08;;;13.10;90.10;;;;;;5049656;28;20025;-71
2022/12/31 03:08:30;;;;;;;4.07;1.63;;;13.10;90.10;;;;;;5060818;28;20140;-71
2022/12/31 03:10:56;;;;;;;4.03;1.63;;;13.10;90.10;;;;;;5038859;28;20108;-71
2022/12/31 03:13:23;;;;;;;3.83;1.63;;;13.10;90.10;;;;;;5075838;28;20036;-71
2022/12/31 03:15:49;;;;;;;3.15;1.60;;;13.10;90.10;;;;;;5053761;28;20032;-71
2022/12/31 03:18:17;;;;;;;3.15;1.40;;;13.10;90.10;;;;;;5048041;28;20054;-71
2022/12/31 03:23:41;;;;;;;4.50;1.95;;;13.10;90.10;;;;;;5050384;28;20029;-71
2022/12/31 03:26:11;;;;;;;4.63;1.50;;;13.10;90.10;;;;;;5053640;28;20028;-70
2022/12/31 03:28:39;;;;;;;6.35;1.92;;;13.10;90.10;;;;;;5036086;28;20450;-71
2022/12/31 03:31:05;;;;;;;3.95;1.67;;;13.10;90.10;;;;;;5046315;28;20034;-71
2022/12/31 03:33:34;;;;;;;5.60;1.60;;;13.10;90.10;;;;;;5038327;28;20108;-70
2022/12/31 03:36:05;;;;;;;3.72;1.48;;;13.10;90.10;;;;;;5041624;28;20107;-71
2022/12/31 03:38:31;;;;;;;3.22;1.50;;;13.10;90.10;;;;;;5053377;28;20083;-72
2022/12/31 03:40:57;;;;;;;3.20;1.70;;;13.10;90.10;;;;;;5047645;28;20030;-72
2022/12/31 03:43:24;;;;;;;2.97;1.45;;;13.10;90.10;;;;;;5035648;28;20029;-72
2022/12/31 03:45:51;;;;;;;3.63;1.40;;;13.10;90.10;;;;;;5053613;28;20032;-71
2022/12/31 03:48:18;;;;;;;5.70;2.20;;;13.00;90.00;;;;;;5027857;28;20050;-72
2022/12/31 03:50:44;;;;;;;4.82;2.28;;;13.00;90.00;;;;;;5052686;28;20112;-72
2022/12/31 03:53:10;;;;;;;4.65;2.03;;;13.10;90.10;;;;;;5039889;28;20104;-71
2022/12/31 03:55:36;;;;;;;4.70;2.13;;;13.00;90.10;;;;;;5052055;28;20055;-71
2022/12/31 03:58:01;;;;;;;5.88;2.58;;;13.00;90.00;;;;;;5054400;28;20021;-71
2022/12/31 04:00:27;;;;;;;5.43;2.00;;;13.00;90.00;;;;;;5037112;28;20033;-71
2022/12/31 04:02:53;;;;;;;5.25;2.20;;;13.00;90.00;;;;;;5036784;28;20020;-71
2022/12/31 04:05:19;;;;;;;7.05;2.67;;;13.00;90.00;;;;;;5026254;28;20515;-71
2022/12/31 04:07:45;;;;;;;5.82;2.50;;;13.00;90.00;;;;;;5051558;28;20025;-72
2022/12/31 04:10:13;;;;;;;5.50;2.28;;;13.00;90.10;;;;;;5037148;28;20362;-72
2022/12/31 04:12:39;;;;;;;5.70;2.47;;;13.00;90.10;;;;;;5030056;28;20026;-71
2022/12/31 04:15:06;;;;;;;6.07;2.65;;;13.00;90.10;;;;;;5039830;28;20382;-72
2022/12/31 04:17:32;;;;;;;5.40;2.50;;;13.00;90.10;;;;;;5053426;28;20044;-72
2022/12/31 04:19:58;;;;;;;5.65;2.53;;;13.00;90.10;;;;;;5037529;28;20021;-70
2022/12/31 04:22:24;;;;;;;5.28;2.60;;;13.00;90.10;;;;;;5049159;28;20339;-71
2022/12/31 04:24:50;;;;;;;6.38;2.80;;;13.00;90.10;;;;;;5037674;28;20026;-70
2022/12/31 04:27:15;;;;;;;6.13;2.70;;;13.00;90.10;;;;;;5044395;28;20048;-70
2022/12/31 04:29:41;;;;;;;5.82;2.80;;;13.00;90.00;;;;;;5040004;28;20441;-71
2022/12/31 04:32:09;;;;;;;6.88;2.88;;;13.00;90.00;;;;;;5063466;28;20385;-71
2022/12/31 04:34:35;;;;;;;5.38;2.58;;;13.00;90.10;;;;;;5041838;28;20053;-70
2022/12/31 04:37:02;;;;;;;6.05;2.60;;;13.00;90.10;;;;;;5047306;28;20068;-70
2022/12/31 04:39:28;;;;;;;5.85;2.60;;;13.00;90.10;;;;;;5033827;28;20025;-71
2022/12/31 04:41:54;;;;;;;6.35;2.80;;;13.00;90.10;;;;;;5036501;28;20033;-71
2022/12/31 04:44:20;;;;;;;4.90;2.38;;;13.00;90.10;;;;;;5025904;28;20030;-71
2022/12/31 04:46:47;;;;;;;6.10;2.90;;;13.00;90.10;;;;;;5011534;28;20116;-71
2022/12/31 04:49:14;;;;;;;6.15;2.78;;;13.00;90.10;;;;;;5047712;28;20041;-71
2022/12/31 04:51:40;;;;;;;7.22;3.10;;;13.00;90.10;;;;;;5058952;28;20048;-71
2022/12/31 04:54:06;;;;;;;5.72;2.90;;;13.00;90.10;;;;;;5029310;28;20092;-72
2022/12/31 04:56:35;;;;;;;7.07;2.85;;;13.00;90.10;;;;;;5040079;28;20531;-71
2022/12/31 04:59:01;;;;;;;5.28;2.47;;;13.00;90.10;;;;;;5049423;28;20028;-71
2022/12/31 05:01:26;;;;;;;5.10;2.40;;;13.00;90.10;;;;;;5020213;28;20041;-71
2022/12/31 05:03:52;;;;;;;4.88;2.50;;;13.00;90.10;;;;;;5047258;28;20108;-71
2022/12/31 05:06:21;;;;;;;4.95;2.63;;;13.00;90.10;;;;;;5025581;28;20028;-71
2022/12/31 05:08:47;;;;;;;5.22;2.40;;;13.00;90.10;;;;;;5057661;28;20107;-71
2022/12/31 05:11:13;;;;;;;6.50;2.50;;;13.00;90.10;;;;;;5040098;28;20039;-71
2022/12/31 05:13:39;;;;;;;4.75;2.35;;;13.00;90.10;;;;;;5068726;28;20025;-70
2022/12/31 05:16:06;;;;;;;5.78;2.78;;;13.10;90.20;;;;;;5033289;28;20116;-70
2022/12/31 05:18:32;;;;;;;4.22;2.00;;;13.00;90.10;;;;;;5039905;28;20469;-71
2022/12/31 05:20:59;;;;;;;4.70;2.05;;;13.10;90.50;;;;;;5032579;28;20031;-71
2022/12/31 05:23:25;;;;;;;4.22;1.92;;;13.10;90.20;;;;;;5045557;28;20033;-71
2022/12/31 05:25:51;;;;;;;4.30;1.85;;;13.10;90.20;;;;;;5062070;28;20025;-70
2022/12/31 05:28:17;;;;;;;3.67;1.52;;;13.10;90.20;;;;;;5046783;28;20056;-71
2022/12/31 05:30:46;;;;;;;3.65;1.55;;;13.10;90.20;;;;;;5041784;28;20022;-70
2022/12/31 05:33:12;;;;;;;2.38;1.40;;;13.10;90.20;;;;;;5024707;28;20079;-71
2022/12/31 05:35:38;;;;;;;3.50;1.20;;;13.10;90.20;;;;;;5029557;28;20024;-71
2022/12/31 05:38:04;;;;;;;2.45;1.25;;;13.10;90.20;;;;;;5055638;28;20029;-71
2022/12/31 05:40:30;;;;;;;1.88;0.88;;;13.20;90.20;;;;;;5050548;28;20359;-72
2022/12/31 05:42:56;;;;;;;1.40;0.90;;;13.10;90.20;;;;;;5024551;28;20392;-72
2022/12/31 05:45:22;;;;;;;0.93;0.65;;;13.20;90.20;;;;;;5038054;28;20037;-72
2022/12/31 05:47:48;;;;;;;0.75;0.60;;;13.20;90.20;;;;;;5055461;28;20042;-73
2022/12/31 05:50:15;;;;;;;1.02;0.70;;;13.20;90.20;;;;;;5039577;28;20101;-72
2022/12/31 05:52:42;;;;;;;0.65;0.60;;;13.20;90.20;;;;;;5052472;28;20032;-72
2022/12/31 05:55:08;;;;;;;0.88;0.70;;;13.20;90.20;;;;;;5033623;28;20520;-73
2022/12/31 05:57:34;;;;;;;1.33;0.70;;;13.20;90.20;;;;;;5033363;28;20029;-71
2022/12/31 05:59:59;;;;;;;0.70;0.60;;;13.30;90.20;;;;;;5049019;28;20364;-71
2022/12/31 06:02:25;;;;;;;1.02;0.70;;;13.30;90.20;;;;;;5025336;28;20023;-72
2022/12/31 06:04:51;;;;;;;0.70;0.60;;;13.20;90.20;;;;;;5036843;28;20347;-71
2022/12/31 06:07:17;;;;;;;1.27;0.80;;;13.30;90.20;;;;;;5019313;28;20064;-71
2022/12/31 06:09:43;;;;;;;1.23;0.70;;;13.30;90.20;;;;;;5034913;28;20389;-71
2022/12/31 06:12:08;;;;;;;0.95;0.73;;;13.30;90.20;;;;;;5034869;28;20022;-71
2022/12/31 06:14:34;;;;;;;0.88;0.73;;;13.30;90.20;;;;;;5034251;28;20113;-71
2022/12/31 06:17:01;;;;;;;1.35;0.80;;;13.30;90.20;;;;;;5035627;28;20515;-71
2022/12/31 06:19:26;;;;;;;1.10;0.75;;;13.20;90.20;;;;;;5041805;28;20033;-71
2022/12/31 06:21:52;;;;;;;1.02;0.68;;;13.30;90.30;;;;;;5044915;28;20063;-71
2022/12/31 06:24:18;;;;;;;1.00;0.73;;;13.20;90.30;;;;;;5044885;28;20032;-71
2022/12/31 06:26:43;;;;;;;1.90;0.90;;;13.20;90.30;;;;;;5042170;28;20092;-71
2022/12/31 06:29:09;;;;;;;2.15;1.00;;;13.30;90.30;;;;;;5020056;28;20171;-71
2022/12/31 06:31:35;;;;;;;0.82;0.70;;;13.30;90.30;;;;;;5056546;28;20044;-71
2022/12/31 06:34:01;;;;;;;1.77;0.80;;;13.30;90.30;;;;;;5042324;28;20025;-71
2022/12/31 06:36:27;;;;;;;2.38;0.98;;;13.30;90.30;;;;;;5045732;28;20437;-71
2022/12/31 06:38:54;;;;;;;2.45;0.82;;;13.30;90.30;;;;;;5053444;28;20458;-71
2022/12/31 06:41:22;;;;;;;0.68;0.52;;;13.30;90.30;;;;;;5045543;28;20025;-71
2022/12/31 06:43:48;;;;;;;0.98;0.90;;;13.30;90.30;;;;;;5043677;28;20025;-71
2022/12/31 06:46:16;;;;;;;2.00;0.88;;;13.30;90.30;;;;;;5047215;28;20453;-70
2022/12/31 06:48:43;;;;;;;1.17;0.70;;;13.30;90.30;;;;;;5045726;28;20115;-70
2022/12/31 06:51:16;;;;;;;0.90;0.70;;;13.40;90.40;;;;;;5033571;28;20052;-70
2022/12/31 06:53:43;;;;;;;0.52;0.52;;;13.40;90.40;;;;;;5056826;28;20029;-70
2022/12/31 06:56:14;;;;;;;0.98;0.80;;;13.40;90.30;;;;;;5054062;28;20048;-71
2022/12/31 06:58:40;;;;;;;2.17;0.90;;;13.50;90.40;;;;;;5039331;28;20025;-70
2022/12/31 07:01:25;;;;;;;0.68;0.68;;;13.50;90.30;;;;;;5050745;28;20025;-70
2022/12/31 07:04:09;;;;;;;0.52;0.47;;;13.60;90.30;;;;;;5045505;28;20472;-72
2022/12/31 07:07:00;;;;;;;2.15;0.80;;;13.70;90.30;;;;;;5045457;28;20036;-72
2022/12/31 07:09:37;;;;;;;1.23;0.80;;;13.70;90.30;;;;;;5043668;28;20049;-71
2022/12/31 07:12:30;;;;;;;1.10;0.70;;;13.70;90.30;;;;;;5045596;28;20029;-71
2022/12/31 07:15:40;;;;;;;4.90;1.30;;;13.70;90.30;;;;;;5047506;28;20026;-70
2022/12/31 07:18:17;;;;;;;1.35;1.00;;;13.80;90.30;;;;;;5038147;28;20024;-68
2022/12/31 07:20:43;;;;;;;0.73;0.60;;;13.80;90.40;;;;;;5037911;28;20469;-68
2022/12/31 07:23:09;;;;;;;2.38;0.90;;;13.80;90.40;;;;;;5019190;28;20037;-68
2022/12/31 07:25:37;;;;;;;3.05;0.95;;;13.80;90.40;;;;;;5031307;28;20029;-69
2022/12/31 07:28:29;;;;;;;2.05;1.10;;;13.80;90.40;;;;;;5035695;28;20344;-67
2022/12/31 07:31:16;;;;;;;3.13;1.10;;;13.80;90.50;;;;;;5030154;28;20036;-68
2022/12/31 07:33:53;;;;;;;2.75;1.10;;;13.80;90.50;;;;;;5036854;28;20090;-68
2022/12/31 07:36:37;;;;;;;2.40;1.17;;;13.80;90.50;;;;;;5020867;28;20021;-68
2022/12/31 07:39:14;;;;;;;3.20;1.48;;;13.80;90.50;;;;;;5033264;28;20018;-67
2022/12/31 07:41:45;;;;;;;2.97;1.23;;;13.90;90.60;;;;;;5068095;28;20037;-68
2022/12/31 07:44:17;;;;;;;;;;;13.80;90.60;;;;;;5034053;28;20029;-67
2022/12/31 07:46:55;;;;;;;4.10;1.20;;;13.90;90.50;;;;;;5035550;28;19909;-68
2022/12/31 07:49:22;;;;;;;2.33;1.15;;;13.80;90.50;;;;;;5033458;28;20036;-68
2022/12/31 07:51:48;;;;;;;3.53;1.40;;;13.90;90.60;;;;;;5043933;28;20450;-68
2022/12/31 07:54:14;;;;;;;3.25;1.40;;;13.90;90.60;;;;;;5036715;28;20025;-67
2022/12/31 07:56:40;;;;;;;2.38;1.38;;;13.90;90.60;;;;;;5028469;28;20029;-70
2022/12/31 07:59:22;;;;;;;3.20;1.48;;;13.90;90.70;;;;;;5027256;28;20442;-67
2022/12/31 08:01:58;;;;;;;2.95;1.70;;;13.90;90.70;;;;;;5044010;28;20064;-67
2022/12/31 08:04:38;;;;;;;3.53;1.63;;;13.90;90.70;;;;;;5037901;28;20025;-67
2022/12/31 08:07:14;;;;;;;3.38;1.67;;;13.80;90.70;;;;;;5038351;28;20079;-67
2022/12/31 08:10:12;;;;;;;2.95;1.45;;;13.90;90.70;;;;;;5016598;28;20401;-67
2022/12/31 08:12:40;;;;;;;2.83;1.30;;;13.90;90.70;;;;;;5055719;28;20416;-67
2022/12/31 08:15:13;;;;;;;2.60;1.30;;;13.90;90.70;;;;;;5040045;28;20021;-68
2022/12/31 08:17:39;;;;;;;4.25;1.73;;;13.90;90.70;;;;;;5039134;28;20107;-68
2022/12/31 08:20:05;;;;;;;3.28;1.65;;;13.90;90.70;;;;;;5042082;28;20119;-69
2022/12/31 08:23:00;;;;;;;3.17;0.90;;;14.00;90.70;;;;;;5036039;28;20029;-68
2022/12/31 08:25:57;;;;;;;1.65;0.60;;;14.00;90.80;;;;;;5042112;28;20036;-68
2022/12/31 08:28:40;;;;;;;2.20;0.73;;;14.00;90.80;;;;;;5059789;28;20053;-68
2022/12/31 08:31:15;;;;;;;1.83;0.77;;;13.90;90.70;;;;;;5043565;28;20036;-68
2022/12/31 08:33:50;;;;;;;4.60;0.82;;;13.90;90.80;;;;;;5036519;28;20076;-68
2022/12/31 08:36:23;;;;;;;0.57;0.57;;;14.00;90.80;;;;;;5048149;28;20021;-68
2022/12/31 08:39:31;;;;;;;1.60;0.77;;;13.90;90.80;;;;;;5045657;28;20025;-68
2022/12/31 08:41:58;;;;;;;2.97;0.68;;;13.90;90.80;;;;;;5053622;28;20049;-69
2022/12/31 08:45:01;;;;;;;2.35;0.60;;;13.90;90.80;;;;;;5034955;28;20115;-70
2022/12/31 08:47:56;;;;;;;2.00;0.77;;;13.90;90.80;;;;;;5011668;28;20084;-70
2022/12/31 08:50:22;;;;;;;1.52;0.80;;;13.90;90.80;;;;;;5015177;28;20037;-70
2022/12/31 08:52:47;;;;;;;1.15;0.50;;;13.90;90.80;;;;;;5058049;28;20033;-70
2022/12/31 08:55:17;;;;;;;1.88;0.75;;;13.90;90.80;;;;;;5044358;28;20029;-71
2022/12/31 08:58:28;;;;;;;3.95;0.70;;;13.90;90.80;;;;;;5038751;28;20067;-70
2022/12/31 09:00:55;;;;;;;1.35;0.60;;;13.90;90.80;;;;;;5050858;28;20044;-70
2022/12/31 09:03:30;;;;;;;1.95;0.70;;;13.90;90.70;;;;;;5059673;28;20029;-68
2022/12/31 09:06:35;;;;;;;1.95;0.55;;;13.90;90.80;;;;;;5047812;28;20044;-70
2022/12/31 09:09:20;;;;;;;1.83;0.70;;;13.90;90.80;;;;;;5053098;28;20457;-69
2022/12/31 09:12:07;;;;;;;2.65;0.80;;;14.00;90.80;;;;;;5051378;28;20033;-69
2022/12/31 09:14:47;;;;;;;2.33;0.80;;;14.00;90.70;;;;;;5056845;28;20390;-69
2022/12/31 09:17:21;;;;;;;2.70;0.75;;;14.00;90.80;;;;;;5073271;28;20025;-69
2022/12/31 09:19:47;;;;;;;3.00;1.02;;;14.00;90.80;;;;;;5042959;28;20055;-69
2022/12/31 09:22:13;;;;;;;2.60;1.00;;;14.00;90.70;;;;;;5052541;28;20057;-68
2022/12/31 09:24:39;;;;;;;2.03;1.10;;;14.00;90.70;;;;;;5053063;28;20446;-68
2022/12/31 09:27:16;;;;;;;1.80;1.02;;;14.10;90.70;;;;;;5051526;28;20079;-68
2022/12/31 09:29:58;;;;;;;4.28;1.05;;;14.20;90.70;;;;;;5044155;28;20032;-68
2022/12/31 09:32:55;;;;;;;2.22;1.23;;;14.20;90.60;;;;;;5040823;28;20075;-69
2022/12/31 09:35:29;;;;;;;3.28;1.20;;;14.20;90.60;;;;;;5029127;28;20044;-68
2022/12/31 09:38:09;;;;;;;2.28;1.00;;;14.20;90.60;;;;;;5053981;28;20025;-68
2022/12/31 09:40:57;;;;;;;2.80;1.13;;;14.20;90.60;;;;;;5043265;28;20098;-69
2022/12/31 09:43:58;;;;;;;1.80;1.00;;;14.20;90.60;;;;;;5059384;28;20370;-68
2022/12/31 09:46:35;;;;;;;3.58;1.13;;;14.30;90.60;;;;;;5043024;28;20034;-68
2022/12/31 09:49:38;;;;;;;2.97;1.35;;;14.30;90.50;;;;;;5057691;28;20036;-68
2022/12/31 09:52:09;;;;;;;2.90;1.30;;;14.30;90.50;;;;;;5057306;28;20029;-68
2022/12/31 09:55:21;;;;;;;4.50;1.33;;;14.30;90.50;;;;;;5047101;28;20529;-68
2022/12/31 09:58:08;;;;;;;3.17;1.30;;;14.40;90.40;;;;;;5031366;28;20013;-68
2022/12/31 10:00:41;;;;;;;4.53;1.40;;;14.40;90.40;;;;;;5031649;28;20060;-68
2022/12/31 10:03:24;;;;;;;4.22;1.40;;;14.50;90.70;;;;;;5044895;28;20122;-69
2022/12/31 10:06:06;;;;;;;5.90;1.60;;;14.50;90.40;;;;;;5066998;28;20340;-69
2022/12/31 10:08:51;;;;;;;3.30;1.30;;;14.60;90.40;;;;;;5047831;28;20053;-68
2022/12/31 10:11:29;;;;;;;4.18;1.50;;;14.60;90.40;;;;;;5033855;28;20039;-69
2022/12/31 10:14:04;;;;;;;2.47;1.27;;;14.60;90.30;;;;;;5048240;28;20036;-71
2022/12/31 10:16:45;;;;;;;2.55;1.10;;;14.70;90.30;;;;;;5042111;28;20052;-71
2022/12/31 10:19:22;;;;;;;3.65;1.50;;;14.70;90.30;;;;;;5046150;28;20120;-70
2022/12/31 10:22:17;;;;;;;5.18;1.58;;;14.70;90.30;;;;;;5054177;28;20044;-69
2022/12/31 10:24:49;;;;;;;3.25;1.38;;;14.70;90.30;;;;;;5054678;28;20438;-70
2022/12/31 10:27:34;;;;;;;5.10;1.67;;;14.80;90.40;;;;;;5025048;28;20128;-70
2022/12/31 10:30:19;;;;;;;4.25;1.30;;;14.80;90.40;;;;;;5044556;28;20159;-69
2022/12/31 10:33:14;;;;;;;3.88;1.33;;;14.90;90.30;;;;;;5037064;28;20140;-69
2022/12/31 10:36:08;;;;;;;3.70;1.35;;;14.90;90.30;;;;;;5044738;28;20022;-70
2022/12/31 10:38:50;;;;;;;4.32;1.30;;;15.00;90.30;;;;;;5045946;28;20061;-70
2022/12/31 10:41:40;;;;;;;4.55;1.40;;;15.00;90.30;;;;;;5047466;28;20077;-69
2022/12/31 10:44:14;;;;;;;3.63;1.27;;;15.00;90.30;;;;;;5033785;28;20405;-70
2022/12/31 10:47:04;;;;;;;2.70;1.15;;;15.00;90.20;;;;;;5045088;28;20033;-70
2022/12/31 10:50:01;;;;;;;4.10;1.52;;;15.10;90.30;;;;;;5031757;28;20053;-70
2022/12/31 10:52:58;;;;;;;5.40;1.60;;;15.00;90.30;;;;;;5035647;28;20030;-71
2022/12/31 10:55:45;;;;;;;5.18;1.95;;;15.00;90.60;;;;;;5050183;28;20029;-70
2022/12/31 10:58:26;;;;;;;6.40;2.03;;;15.10;90.30;;;;;;5043714;28;20038;-72
2022/12/31 11:01:16;;;;;;;4.80;1.40;;;15.10;90.30;;;;;;5042963;28;20068;-71
2022/12/31 11:03:57;;;;;;;7.30;2.53;;;15.10;90.30;;;;;;5044149;28;20462;-71
2022/12/31 11:06:37;;;;;;;3.33;1.33;;;15.10;90.30;;;;;;5046037;28;20029;-71
2022/12/31 11:09:15;;;;;;;4.20;2.00;;;15.10;90.30;;;;;;5034108;28;20032;-71
2022/12/31 11:12:18;;;;;;;5.95;1.60;;;15.20;90.30;;;;;;5035301;28;20026;-71
2022/12/31 11:14:54;;;;;;;6.03;1.80;;;15.20;90.30;;;;;;5043785;28;20033;-72
2022/12/31 11:17:22;;;;;;;8.15;2.05;;;15.20;90.30;;;;;;5047508;28;20067;-71
2022/12/31 11:20:12;;;;;;;5.05;2.00;;;15.20;90.30;;;;;;5054542;28;20025;-72
2022/12/31 11:23:01;;;;;;;5.47;2.05;;;15.20;90.30;;;;;;5039741;28;20055;-70
2022/12/31 11:26:11;;;;;;;5.53;2.00;;;15.20;90.30;;;;;;5048322;28;20045;-70
2022/12/31 11:29:21;;;;;;;5.55;1.88;;;15.20;90.30;;;;;;5043354;28;20453;-69
2022/12/31 11:32:05;;;;;;;4.70;1.90;;;15.20;90.30;;;;;;5040659;28;20117;-70
2022/12/31 11:34:53;;;;;;;3.63;1.60;;;15.10;90.30;;;;;;5053089;28;20043;-70
2022/12/31 11:37:51;;;;;;;5.95;1.98;;;15.20;90.30;;;;;;5038516;28;20049;-70
2022/12/31 11:40:34;;;;;;;6.60;2.08;;;15.20;90.30;;;;;;5028743;28;20033;-70
2022/12/31 11:43:10;;;;;;;6.18;2.35;;;15.20;90.60;;;;;;5050362;28;20021;-70
2022/12/31 11:46:19;;;;;;;6.40;1.90;;;15.20;90.60;;;;;;5042266;28;20033;-70
2022/12/31 11:49:04;;;;;;;7.90;2.20;;;15.30;90.30;;;;;;5042903;28;20029;-70
2022/12/31 11:51:52;;;;;;;8.00;2.03;;;15.20;90.20;;;;;;5039707;28;20036;-77
2022/12/31 11:54:27;;;;;;;6.50;2.15;;;15.20;90.20;;;;;;5022715;28;20117;-76
2022/12/31 11:57:10;;;;;;;5.90;1.90;;;15.30;90.20;;;;;;5035171;28;20052;-74
2022/12/31 11:59:36;;;;;;;7.53;1.83;;;15.30;90.20;;;;;;5062808;28;20022;-73
2022/12/31 12:02:23;;;;;;;6.90;2.03;;;15.30;90.20;;;;;;5066242;28;20081;-74
2022/12/31 12:04:51;;;;;;;5.22;1.83;;;15.30;90.10;;;;;;5034933;28;20037;-73
2022/12/31 12:07:17;;;;;;;7.72;1.88;;;15.40;90.10;;;;;;5062355;28;20040;-73
2022/12/31 12:09:44;;;;;;;6.70;1.67;;;15.40;90.00;;;;;;5015695;28;20021;-73
2022/12/31 12:12:10;;;;;;;5.95;1.85;;;15.40;90.00;;;;;;5065072;28;20050;-73
2022/12/31 12:14:43;;;;;;;5.20;1.90;;;15.40;89.90;;;;;;5061980;28;20523;-73
2022/12/31 12:17:15;;;;;;;6.10;1.70;;;15.50;89.80;;;;;;5030037;28;20406;-73
2022/12/31 12:19:46;;;;;;;9.60;2.20;;;15.50;89.60;;;;;;5036515;28;20108;-73
2022/12/31 12:22:21;;;;;;;5.63;1.60;;;15.60;89.40;;;;;;5030444;28;20018;-73
2022/12/31 12:24:56;;;;;;;7.47;1.67;;;15.60;89.40;;;;;;5031413;28;20040;-73
2022/12/31 12:27:27;;;;;;;4.78;1.55;;;15.60;89.20;;;;;;5014800;28;20124;-73
2022/12/31 12:29:53;;;;;;;6.53;1.77;;;15.60;89.20;;;;;;5031644;28;20132;-73
2022/12/31 12:32:25;;;;;;;7.82;2.05;;;15.60;89.10;;;;;;5045478;28;20026;-73
2022/12/31 12:34:52;;;;;;;6.97;1.88;;;15.60;89.10;;;;;;5014322;28;20021;-73
2022/12/31 12:37:34;;;;;;;5.32;1.63;;;15.60;89.10;;;;;;5016652;28;20029;-73
2022/12/31 12:40:08;;;;;;;;;;;15.60;89.10;;;;;;5033559;28;20038;-75
2022/12/31 12:42:34;;;;;;;6.25;1.77;;;15.50;89.10;;;;;;5067069;28;20401;-74
2022/12/31 12:45:44;;;;;;;10.23;1.70;;;15.50;89.10;;;;;;5031471;28;20034;-73
2022/12/31 12:48:21;;;;;;;7.22;1.67;;;15.50;89.10;;;;;;5027784;28;20077;-73
2022/12/31 12:50:48;;;;;;;8.27;2.03;;;15.50;89.20;;;;;;5011739;28;20192;-73
2022/12/31 12:53:38;;;;;;;7.15;2.08;;;15.50;89.30;;;;;;4978311;28;20035;-74
2022/12/31 12:56:29;;;;;;;7.00;2.35;;;15.40;89.30;;;;;;5008935;28;20033;-73
2022/12/31 12:59:13;;;;;;;8.80;2.00;;;15.50;89.40;;;;;;5017604;28;20199;-73
2022/12/31 13:01:46;;;;;;;6.63;1.92;;;15.40;89.40;;;;;;5004637;28;20038;-74
2022/12/31 13:04:37;;;;;;;6.57;2.33;;;15.50;89.40;;;;;;5009676;28;20038;-73
2022/12/31 13:07:30;;;;;;;7.43;1.98;;;15.50;89.40;;;;;;4994074;28;20096;-74
2022/12/31 13:10:02;;;;;;;7.60;1.88;;;15.40;89.30;;;;;;4995552;28;20034;-74
2022/12/31 13:12:44;;;;;;;5.47;1.83;;;15.40;89.30;;;;;;5012154;28;20056;-74
2022/12/31 13:15:23;;;;;;;7.15;2.03;;;15.50;89.20;;;;;;5013610;28;20041;-76
2022/12/31 13:18:02;;;;;;;8.00;1.77;;;15.50;89.20;;;;;;4993376;28;20116;-74
2022/12/31 13:20:41;;;;;;;5.88;1.48;;;15.50;89.10;;;;;;5042797;28;20033;-74
2022/12/31 13:23:35;;;;;;;6.68;1.70;;;15.50;89.10;;;;;;5043393;28;20365;-73
2022/12/31 13:26:14;;;;;;;5.80;1.85;;;15.50;88.90;;;;;;5038228;28;20338;-73
2022/12/31 13:28:42;;;;;;;6.82;1.98;;;15.50;88.90;;;;;;5070550;28;20107;-74
2022/12/31 13:31:29;;;;;;;6.97;2.28;;;15.50;88.90;;;;;;5036586;28;20122;-74